sensor_id;sensor_type;location;lat;lon;timestamp;temperature;humidity
4052;DHT22;2040;50.924;11.604;2023-02-28T00:00:21;-1.80;99.90
4052;DHT22;2040;50.924;11.604;2023-02-28T00:02:47;-1.80;99.90
4052;DHT22;2040;50.924;11.604;2023-02-28T00:05:15;-2.00;99.90
4052;DHT22;2040;50.924;11.604;2023-02-28T00:07:41;-2.10;99.90
4052;DHT22;2040;50.924;11.604;2023-02-28T00:10:12;-2.10;99.90
4052;DHT22;2040;50.924;11.604;2023-02-28T00:12:38;-2.10;99.90
4052;DHT22;2040;50.924;11.604;2023-02-28T00:15:09;-2.10;99.90
4052;DHT22;2040;50.924;11.604;2023-02-28T00:17:36;-1.90;99.90
4052;DHT22;2040;50.924;11.604;2023-02-28T00:20:02;-1.90;99.90
4052;DHT22;2040;50.924;11.604;2023-02-28T00:22:30;-2.10;99.90
4052;DHT22;2040;50.924;11.604;2023-02-28T00:24:56;-2.10;99.90
4052;DHT22;2040;50.924;11.604;2023-02-28T00:27:21;-2.10;99.90
4052;DHT22;2040;50.924;11.604;2023-02-28T00:29:47;-2.20;99.90
4052;DHT22;2040;50.924;11.604;2023-02-28T00:32:12;-2.10;99.90
4052;DHT22;2040;50.924;11.604;2023-02-28T00:34:38;-2.10;99.90
4052;DHT22;2040;50.924;11.604;2023-02-28T00:37:05;-2.00;99.90
4052;DHT22;2040;50.924;11.604;2023-02-28T00:39:36;-2.00;99.90
4052;DHT22;2040;50.924;11.604;2023-02-28T00:42:03;-2.00;99.90
4052;DHT22;2040;50.924;11.604;2023-02-28T00:44:29;-2.00;99.90
4052;DHT22;2040;50.924;11.604;2023-02-28T00:46:55;-2.10;99.90
4052;DHT22;2040;50.924;11.604;2023-02-28T00:49:22;-2.10;99.90
4052;DHT22;2040;50.924;11.604;2023-02-28T00:51:48;-2.10;99.90
4052;DHT22;2040;50.924;11.604;2023-02-28T00:54:14;-2.20;99.90
4052;DHT22;2040;50.924;11.604;2023-02-28T00:56:40;-2.00;99.90
4052;DHT22;2040;50.924;11.604;2023-02-28T00:59:05;-2.00;99.90
4052;DHT22;2040;50.924;11.604;2023-02-28T01:01:31;-2.00;99.90
4052;DHT22;2040;50.924;11.604;2023-02-28T01:03:56;-2.00;99.90
4052;DHT22;2040;50.924;11.604;2023-02-28T01:06:22;-2.00;99.90
4052;DHT22;2040;50.924;11.604;2023-02-28T01:08:47;-2.10;99.90
4052;DHT22;2040;50.924;11.604;2023-02-28T01:11:15;-1.90;99.90
4052;DHT22;2040;50.924;11.604;2023-02-28T01:13:42;-1.90;99.90
4052;DHT22;2040;50.924;11.604;2023-02-28T01:16:07;-2.00;99.90
4052;DHT22;2040;50.924;11.604;2023-02-28T01:18:33;-1.90;99.90
4052;DHT22;2040;50.924;11.604;2023-02-28T01:21:07;-1.90;99.90
4052;DHT22;2040;50.924;11.604;2023-02-28T01:23:33;-2.00;99.90
4052;DHT22;2040;50.924;11.604;2023-02-28T01:26:07;-2.00;99.90
4052;DHT22;2040;50.924;11.604;2023-02-28T01:28:33;-2.00;99.90
4052;DHT22;2040;50.924;11.604;2023-02-28T01:30:59;-2.10;99.90
4052;DHT22;2040;50.924;11.604;2023-02-28T01:33:24;-2.10;99.90
4052;DHT22;2040;50.924;11.604;2023-02-28T01:35:58;-2.20;99.90
4052;DHT22;2040;50.924;11.604;2023-02-28T01:38:24;-2.20;99.90
4052;DHT22;2040;50.924;11.604;2023-02-28T01:40:50;-2.20;99.90
4052;DHT22;2040;50.924;11.604;2023-02-28T01:43:28;-2.10;99.90
4052;DHT22;2040;50.924;11.604;2023-02-28T01:45:55;-2.10;99.90
4052;DHT22;2040;50.924;11.604;2023-02-28T01:48:24;-2.20;99.90
4052;DHT22;2040;50.924;11.604;2023-02-28T01:50:51;-2.20;99.90
4052;DHT22;2040;50.924;11.604;2023-02-28T01:53:21;-2.10;99.90
4052;DHT22;2040;50.924;11.604;2023-02-28T01:55:50;-2.00;99.90
4052;DHT22;2040;50.924;11.604;2023-02-28T01:58:17;-2.10;99.90
4052;DHT22;2040;50.924;11.604;2023-02-28T02:00:43;-2.10;99.90
4052;DHT22;2040;50.924;11.604;2023-02-28T02:03:12;-2.20;99.90
4052;DHT22;2040;50.924;11.604;2023-02-28T02:05:40;-2.20;99.90
4052;DHT22;2040;50.924;11.604;2023-02-28T02:08:11;-2.20;99.90
4052;DHT22;2040;50.924;11.604;2023-02-28T02:10:46;-2.10;99.90
4052;DHT22;2040;50.924;11.604;2023-02-28T02:19:04;-2.20;99.90
4052;DHT22;2040;50.924;11.604;2023-02-28T02:22:11;-2.40;99.90
4052;DHT22;2040;50.924;11.604;2023-02-28T02:25:08;-2.50;99.90
4052;DHT22;2040;50.924;11.604;2023-02-28T02:30:53;-2.40;99.90
4052;DHT22;2040;50.924;11.604;2023-02-28T02:36:08;-2.20;99.90
4052;DHT22;2040;50.924;11.604;2023-02-28T02:38:47;-2.20;99.90
4052;DHT22;2040;50.924;11.604;2023-02-28T02:41:34;-2.30;99.90
4052;DHT22;2040;50.924;11.604;2023-02-28T02:44:29;-2.30;99.90
4052;DHT22;2040;50.924;11.604;2023-02-28T02:47:05;-2.30;99.90
4052;DHT22;2040;50.924;11.604;2023-02-28T02:49:35;-2.30;99.90
4052;DHT22;2040;50.924;11.604;2023-02-28T02:52:04;-2.10;99.90
4052;DHT22;2040;50.924;11.604;2023-02-28T02:54:35;-2.20;99.90
4052;DHT22;2040;50.924;11.604;2023-02-28T02:57:05;-2.30;99.90
4052;DHT22;2040;50.924;11.604;2023-02-28T02:59:35;-2.30;99.90
4052;DHT22;2040;50.924;11.604;2023-02-28T03:02:04;-2.30;99.90
4052;DHT22;2040;50.924;11.604;2023-02-28T03:04:36;-2.10;99.90
4052;DHT22;2040;50.924;11.604;2023-02-28T03:07:02;-2.20;99.90
4052;DHT22;2040;50.924;11.604;2023-02-28T03:09:28;-2.30;99.90
4052;DHT22;2040;50.924;11.604;2023-02-28T03:11:56;-2.40;99.90
4052;DHT22;2040;50.924;11.604;2023-02-28T03:14:50;-2.50;99.90
4052;DHT22;2040;50.924;11.604;2023-02-28T03:17:30;-2.50;99.90
4052;DHT22;2040;50.924;11.604;2023-02-28T03:20:24;-2.40;99.90
4052;DHT22;2040;50.924;11.604;2023-02-28T03:23:23;-2.40;99.90
4052;DHT22;2040;50.924;11.604;2023-02-28T03:26:01;-2.50;99.90
4052;DHT22;2040;50.924;11.604;2023-02-28T03:31:34;-2.40;99.90
4052;DHT22;2040;50.924;11.604;2023-02-28T03:36:35;-2.40;99.90
4052;DHT22;2040;50.924;11.604;2023-02-28T03:39:11;-2.20;99.90
4052;DHT22;2040;50.924;11.604;2023-02-28T03:41:44;-2.30;99.90
4052;DHT22;2040;50.924;11.604;2023-02-28T03:44:27;-2.10;99.90
4052;DHT22;2040;50.924;11.604;2023-02-28T03:47:17;-2.10;99.90
4052;DHT22;2040;50.924;11.604;2023-02-28T03:49:54;-2.10;99.90
4052;DHT22;2040;50.924;11.604;2023-02-28T03:52:23;-2.20;99.90
4052;DHT22;2040;50.924;11.604;2023-02-28T03:54:54;-2.10;99.90
4052;DHT22;2040;50.924;11.604;2023-02-28T03:57:36;-2.20;99.90
4052;DHT22;2040;50.924;11.604;2023-02-28T04:00:27;-2.30;99.90
4052;DHT22;2040;50.924;11.604;2023-02-28T04:02:54;-2.30;99.90
4052;DHT22;2040;50.924;11.604;2023-02-28T04:05:21;-2.40;99.90
4052;DHT22;2040;50.924;11.604;2023-02-28T04:07:47;-2.30;99.90
4052;DHT22;2040;50.924;11.604;2023-02-28T04:10:13;-2.30;99.90
4052;DHT22;2040;50.924;11.604;2023-02-28T04:12:39;-2.40;99.90
4052;DHT22;2040;50.924;11.604;2023-02-28T04:15:05;-2.30;99.90
4052;DHT22;2040;50.924;11.604;2023-02-28T04:17:31;-2.40;99.90
4052;DHT22;2040;50.924;11.604;2023-02-28T04:19:57;-2.30;99.90
4052;DHT22;2040;50.924;11.604;2023-02-28T04:22:23;-2.30;99.90
4052;DHT22;2040;50.924;11.604;2023-02-28T04:24:51;-2.30;99.90
4052;DHT22;2040;50.924;11.604;2023-02-28T04:27:20;-2.30;99.90
4052;DHT22;2040;50.924;11.604;2023-02-28T04:29:45;-2.30;99.90
4052;DHT22;2040;50.924;11.604;2023-02-28T04:32:11;-2.40;99.90
4052;DHT22;2040;50.924;11.604;2023-02-28T04:34:37;-2.40;99.90
4052;DHT22;2040;50.924;11.604;2023-02-28T04:37:03;-2.50;99.90
4052;DHT22;2040;50.924;11.604;2023-02-28T04:39:29;-2.40;99.90
4052;DHT22;2040;50.924;11.604;2023-02-28T04:41:55;-2.40;99.90
4052;DHT22;2040;50.924;11.604;2023-02-28T04:44:22;-2.30;99.90
4052;DHT22;2040;50.924;11.604;2023-02-28T04:46:48;-2.30;99.90
4052;DHT22;2040;50.924;11.604;2023-02-28T04:49:14;-2.40;99.90
4052;DHT22;2040;50.924;11.604;2023-02-28T04:51:40;-2.50;99.90
4052;DHT22;2040;50.924;11.604;2023-02-28T04:54:06;-2.50;99.90
4052;DHT22;2040;50.924;11.604;2023-02-28T04:56:32;-2.60;99.90
4052;DHT22;2040;50.924;11.604;2023-02-28T04:58:57;-2.50;99.90
4052;DHT22;2040;50.924;11.604;2023-02-28T05:01:33;-2.50;99.90
4052;DHT22;2040;50.924;11.604;2023-02-28T05:04:01;-2.50;99.90
4052;DHT22;2040;50.924;11.604;2023-02-28T05:06:29;-2.70;99.90
4052;DHT22;2040;50.924;11.604;2023-02-28T05:08:56;-2.70;99.90
4052;DHT22;2040;50.924;11.604;2023-02-28T05:11:32;-2.80;99.90
4052;DHT22;2040;50.924;11.604;2023-02-28T05:14:06;-2.90;99.90
4052;DHT22;2040;50.924;11.604;2023-02-28T05:16:32;-3.00;99.90
4052;DHT22;2040;50.924;11.604;2023-02-28T05:18:58;-3.00;99.90
4052;DHT22;2040;50.924;11.604;2023-02-28T05:23:53;-3.20;99.90
4052;DHT22;2040;50.924;11.604;2023-02-28T05:26:19;-3.10;99.90
4052;DHT22;2040;50.924;11.604;2023-02-28T05:28:45;-3.00;99.90
4052;DHT22;2040;50.924;11.604;2023-02-28T05:31:11;-3.00;99.90
4052;DHT22;2040;50.924;11.604;2023-02-28T05:33:37;-3.10;99.90
4052;DHT22;2040;50.924;11.604;2023-02-28T05:36:03;-3.10;99.90
4052;DHT22;2040;50.924;11.604;2023-02-28T05:38:29;-2.90;99.90
4052;DHT22;2040;50.924;11.604;2023-02-28T05:40:54;-2.90;99.90
4052;DHT22;2040;50.924;11.604;2023-02-28T05:43:20;-3.00;99.90
4052;DHT22;2040;50.924;11.604;2023-02-28T05:45:45;-3.00;99.90
4052;DHT22;2040;50.924;11.604;2023-02-28T05:48:11;-2.90;99.90
4052;DHT22;2040;50.924;11.604;2023-02-28T05:50:36;-3.10;99.90
4052;DHT22;2040;50.924;11.604;2023-02-28T05:53:02;-3.20;99.90
4052;DHT22;2040;50.924;11.604;2023-02-28T05:55:27;-3.40;99.90
4052;DHT22;2040;50.924;11.604;2023-02-28T05:57:53;-3.40;99.90
4052;DHT22;2040;50.924;11.604;2023-02-28T06:00:19;-3.50;99.90
4052;DHT22;2040;50.924;11.604;2023-02-28T06:02:45;-3.50;99.90
4052;DHT22;2040;50.924;11.604;2023-02-28T06:05:16;-3.50;99.90
4052;DHT22;2040;50.924;11.604;2023-02-28T06:07:42;-3.40;99.90
4052;DHT22;2040;50.924;11.604;2023-02-28T06:10:09;-3.50;99.90
4052;DHT22;2040;50.924;11.604;2023-02-28T06:12:35;-3.30;99.90
4052;DHT22;2040;50.924;11.604;2023-02-28T06:15:00;-3.20;99.90
4052;DHT22;2040;50.924;11.604;2023-02-28T06:17:26;-3.30;99.90
4052;DHT22;2040;50.924;11.604;2023-02-28T06:19:51;-3.20;99.90
4052;DHT22;2040;50.924;11.604;2023-02-28T06:22:17;-3.30;99.90
4052;DHT22;2040;50.924;11.604;2023-02-28T06:24:43;-3.20;99.90
4052;DHT22;2040;50.924;11.604;2023-02-28T06:27:08;-3.20;99.90
4052;DHT22;2040;50.924;11.604;2023-02-28T06:29:34;-3.20;99.90
4052;DHT22;2040;50.924;11.604;2023-02-28T06:32:00;-3.20;99.90
4052;DHT22;2040;50.924;11.604;2023-02-28T06:34:27;-3.40;99.90
4052;DHT22;2040;50.924;11.604;2023-02-28T06:36:53;-3.20;99.90
4052;DHT22;2040;50.924;11.604;2023-02-28T06:39:19;-3.10;99.90
4052;DHT22;2040;50.924;11.604;2023-02-28T06:41:44;-3.20;99.90
4052;DHT22;2040;50.924;11.604;2023-02-28T06:44:16;-3.20;99.90
4052;DHT22;2040;50.924;11.604;2023-02-28T06:46:43;-3.20;99.90
4052;DHT22;2040;50.924;11.604;2023-02-28T06:49:09;-3.20;99.90
4052;DHT22;2040;50.924;11.604;2023-02-28T06:51:37;-3.20;99.90
4052;DHT22;2040;50.924;11.604;2023-02-28T06:54:04;-3.20;99.90
4052;DHT22;2040;50.924;11.604;2023-02-28T06:56:29;-3.00;99.90
4052;DHT22;2040;50.924;11.604;2023-02-28T06:58:55;-3.00;99.90
4052;DHT22;2040;50.924;11.604;2023-02-28T07:01:21;-2.90;99.90
4052;DHT22;2040;50.924;11.604;2023-02-28T07:03:48;-2.90;99.90
4052;DHT22;2040;50.924;11.604;2023-02-28T07:06:21;-2.90;99.90
4052;DHT22;2040;50.924;11.604;2023-02-28T07:08:48;-2.90;99.90
4052;DHT22;2040;50.924;11.604;2023-02-28T07:11:14;-3.00;99.90
4052;DHT22;2040;50.924;11.604;2023-02-28T07:13:40;-3.00;99.90
4052;DHT22;2040;50.924;11.604;2023-02-28T07:16:10;-2.90;99.90
4052;DHT22;2040;50.924;11.604;2023-02-28T07:18:37;-2.90;99.90
4052;DHT22;2040;50.924;11.604;2023-02-28T07:21:04;-3.00;99.90
4052;DHT22;2040;50.924;11.604;2023-02-28T07:23:30;-3.10;99.90
4052;DHT22;2040;50.924;11.604;2023-02-28T07:25:56;-3.10;99.90
4052;DHT22;2040;50.924;11.604;2023-02-28T07:28:21;-3.00;99.90
4052;DHT22;2040;50.924;11.604;2023-02-28T07:30:47;-3.10;99.90
4052;DHT22;2040;50.924;11.604;2023-02-28T07:33:14;-3.00;99.90
4052;DHT22;2040;50.924;11.604;2023-02-28T07:35:40;-2.90;99.90
4052;DHT22;2040;50.924;11.604;2023-02-28T07:38:06;-2.70;99.90
4052;DHT22;2040;50.924;11.604;2023-02-28T07:40:33;-2.50;99.90
4052;DHT22;2040;50.924;11.604;2023-02-28T07:43:00;-2.20;99.90
4052;DHT22;2040;50.924;11.604;2023-02-28T07:45:26;-2.20;99.90
4052;DHT22;2040;50.924;11.604;2023-02-28T07:47:52;-2.00;99.90
4052;DHT22;2040;50.924;11.604;2023-02-28T07:50:18;-2.00;99.90
4052;DHT22;2040;50.924;11.604;2023-02-28T07:52:43;-1.70;99.90
4052;DHT22;2040;50.924;11.604;2023-02-28T07:55:09;-1.60;99.90
4052;DHT22;2040;50.924;11.604;2023-02-28T07:57:36;-1.50;99.90
4052;DHT22;2040;50.924;11.604;2023-02-28T08:00:04;-1.30;99.90
4052;DHT22;2040;50.924;11.604;2023-02-28T08:02:29;-1.10;99.90
4052;DHT22;2040;50.924;11.604;2023-02-28T08:04:55;-1.20;99.90
4052;DHT22;2040;50.924;11.604;2023-02-28T08:07:21;-1.10;99.90
4052;DHT22;2040;50.924;11.604;2023-02-28T08:09:47;-1.20;99.90
4052;DHT22;2040;50.924;11.604;2023-02-28T08:12:12;-1.20;99.90
4052;DHT22;2040;50.924;11.604;2023-02-28T08:14:38;-1.00;99.90
4052;DHT22;2040;50.924;11.604;2023-02-28T08:17:05;-1.00;99.90
4052;DHT22;2040;50.924;11.604;2023-02-28T08:19:30;-0.80;99.90
4052;DHT22;2040;50.924;11.604;2023-02-28T08:21:56;-0.90;99.90
4052;DHT22;2040;50.924;11.604;2023-02-28T08:24:22;-0.90;99.90
4052;DHT22;2040;50.924;11.604;2023-02-28T08:26:48;-0.80;99.90
4052;DHT22;2040;50.924;11.604;2023-02-28T08:29:14;-0.80;99.90
4052;DHT22;2040;50.924;11.604;2023-02-28T08:31:39;-0.70;99.90
4052;DHT22;2040;50.924;11.604;2023-02-28T08:34:09;-0.60;99.90
4052;DHT22;2040;50.924;11.604;2023-02-28T08:36:36;-0.60;99.90
4052;DHT22;2040;50.924;11.604;2023-02-28T08:39:02;-0.50;99.90
4052;DHT22;2040;50.924;11.604;2023-02-28T08:41:28;-0.50;99.90
4052;DHT22;2040;50.924;11.604;2023-02-28T08:43:53;-0.50;99.90
4052;DHT22;2040;50.924;11.604;2023-02-28T08:46:19;-0.20;99.90
4052;DHT22;2040;50.924;11.604;2023-02-28T08:48:45;-0.20;99.90
4052;DHT22;2040;50.924;11.604;2023-02-28T08:51:14;-0.20;99.90
4052;DHT22;2040;50.924;11.604;2023-02-28T08:53:41;-0.10;99.90
4052;DHT22;2040;50.924;11.604;2023-02-28T08:56:09;-0.10;99.90
4052;DHT22;2040;50.924;11.604;2023-02-28T08:58:36;0.10;99.90
4052;DHT22;2040;50.924;11.604;2023-02-28T09:01:11;0.20;99.90
4052;DHT22;2040;50.924;11.604;2023-02-28T09:03:38;0.40;99.90
4052;DHT22;2040;50.924;11.604;2023-02-28T09:06:04;0.60;99.90
4052;DHT22;2040;50.924;11.604;2023-02-28T09:08:30;0.90;99.90
4052;DHT22;2040;50.924;11.604;2023-02-28T09:10:56;0.60;99.90
4052;DHT22;2040;50.924;11.604;2023-02-28T09:13:24;0.60;99.90
4052;DHT22;2040;50.924;11.604;2023-02-28T09:15:50;0.80;99.90
4052;DHT22;2040;50.924;11.604;2023-02-28T09:18:16;0.80;99.90
4052;DHT22;2040;50.924;11.604;2023-02-28T09:20:44;0.80;99.90
4052;DHT22;2040;50.924;11.604;2023-02-28T09:23:12;0.80;99.90
4052;DHT22;2040;50.924;11.604;2023-02-28T09:25:44;0.50;99.90
4052;DHT22;2040;50.924;11.604;2023-02-28T09:28:10;0.40;99.90
4052;DHT22;2040;50.924;11.604;2023-02-28T09:30:36;0.40;99.90
4052;DHT22;2040;50.924;11.604;2023-02-28T09:33:03;0.50;99.90
4052;DHT22;2040;50.924;11.604;2023-02-28T09:35:29;0.90;99.90
4052;DHT22;2040;50.924;11.604;2023-02-28T09:37:56;0.90;99.90
4052;DHT22;2040;50.924;11.604;2023-02-28T09:40:24;1.20;99.90
4052;DHT22;2040;50.924;11.604;2023-02-28T09:42:53;1.50;99.90
4052;DHT22;2040;50.924;11.604;2023-02-28T09:45:27;1.70;99.90
4052;DHT22;2040;50.924;11.604;2023-02-28T09:47:56;1.70;99.90
4052;DHT22;2040;50.924;11.604;2023-02-28T09:50:36;1.70;99.90
4052;DHT22;2040;50.924;11.604;2023-02-28T09:53:15;1.60;99.90
4052;DHT22;2040;50.924;11.604;2023-02-28T09:55:55;1.50;99.90
4052;DHT22;2040;50.924;11.604;2023-02-28T10:01:22;1.90;99.90
4052;DHT22;2040;50.924;11.604;2023-02-28T10:06:51;2.00;99.90
4052;DHT22;2040;50.924;11.604;2023-02-28T10:09:41;1.90;99.90
4052;DHT22;2040;50.924;11.604;2023-02-28T10:12:08;1.60;99.90
4052;DHT22;2040;50.924;11.604;2023-02-28T10:14:35;1.60;99.90
4052;DHT22;2040;50.924;11.604;2023-02-28T10:17:03;1.80;99.90
4052;DHT22;2040;50.924;11.604;2023-02-28T10:22:42;2.00;99.90
4052;DHT22;2040;50.924;11.604;2023-02-28T10:25:25;2.40;99.90
4052;DHT22;2040;50.924;11.604;2023-02-28T10:28:00;2.40;99.90
4052;DHT22;2040;50.924;11.604;2023-02-28T10:30:27;2.40;99.90
4052;DHT22;2040;50.924;11.604;2023-02-28T10:32:53;2.30;99.90
4052;DHT22;2040;50.924;11.604;2023-02-28T10:35:22;2.40;99.90
4052;DHT22;2040;50.924;11.604;2023-02-28T10:37:50;2.40;99.90
4052;DHT22;2040;50.924;11.604;2023-02-28T10:43:12;2.40;99.90
4052;DHT22;2040;50.924;11.604;2023-02-28T10:46:02;2.60;99.90
4052;DHT22;2040;50.924;11.604;2023-02-28T10:50:56;3.10;99.90
4052;DHT22;2040;50.924;11.604;2023-02-28T10:58:50;3.30;99.90
4052;DHT22;2040;50.924;11.604;2023-02-28T11:01:39;3.40;99.90
4052;DHT22;2040;50.924;11.604;2023-02-28T11:06:58;3.70;99.90
4052;DHT22;2040;50.924;11.604;2023-02-28T11:09:28;3.80;99.90
4052;DHT22;2040;50.924;11.604;2023-02-28T11:11:57;3.90;99.90
4052;DHT22;2040;50.924;11.604;2023-02-28T11:14:28;3.50;99.90
4052;DHT22;2040;50.924;11.604;2023-02-28T11:16:59;3.80;99.90
4052;DHT22;2040;50.924;11.604;2023-02-28T11:19:38;4.30;99.90
4052;DHT22;2040;50.924;11.604;2023-02-28T11:22:05;4.00;99.90
4052;DHT22;2040;50.924;11.604;2023-02-28T11:24:33;4.20;99.90
4052;DHT22;2040;50.924;11.604;2023-02-28T11:27:00;4.30;99.90
4052;DHT22;2040;50.924;11.604;2023-02-28T11:29:28;4.10;99.90
4052;DHT22;2040;50.924;11.604;2023-02-28T11:32:05;4.10;99.90
4052;DHT22;2040;50.924;11.604;2023-02-28T11:34:31;4.00;99.90
4052;DHT22;2040;50.924;11.604;2023-02-28T11:36:59;3.90;99.90
4052;DHT22;2040;50.924;11.604;2023-02-28T11:39:26;3.90;99.90
4052;DHT22;2040;50.924;11.604;2023-02-28T11:42:17;4.30;99.90
4052;DHT22;2040;50.924;11.604;2023-02-28T11:47:44;3.60;99.90
4052;DHT22;2040;50.924;11.604;2023-02-28T11:52:45;3.90;99.90
4052;DHT22;2040;50.924;11.604;2023-02-28T11:55:16;3.40;99.90
4052;DHT22;2040;50.924;11.604;2023-02-28T12:01:03;3.30;99.90
4052;DHT22;2040;50.924;11.604;2023-02-28T12:03:45;3.40;99.90
4052;DHT22;2040;50.924;11.604;2023-02-28T12:06:25;3.50;99.90
4052;DHT22;2040;50.924;11.604;2023-02-28T12:11:55;3.80;99.90
4052;DHT22;2040;50.924;11.604;2023-02-28T12:14:47;4.00;99.90
4052;DHT22;2040;50.924;11.604;2023-02-28T12:22:49;3.60;99.90
4052;DHT22;2040;50.924;11.604;2023-02-28T12:28:12;3.80;99.90
4052;DHT22;2040;50.924;11.604;2023-02-28T12:33:43;3.70;99.90
4052;DHT22;2040;50.924;11.604;2023-02-28T12:36:11;3.90;99.90
4052;DHT22;2040;50.924;11.604;2023-02-28T12:38:47;3.90;99.90
4052;DHT22;2040;50.924;11.604;2023-02-28T12:41:18;3.90;99.90
4052;DHT22;2040;50.924;11.604;2023-02-28T12:43:53;3.90;99.90
4052;DHT22;2040;50.924;11.604;2023-02-28T12:46:39;3.80;99.90
4052;DHT22;2040;50.924;11.604;2023-02-28T12:49:10;3.60;99.90
4052;DHT22;2040;50.924;11.604;2023-02-28T12:51:38;3.60;99.90
4052;DHT22;2040;50.924;11.604;2023-02-28T12:54:14;3.90;99.90
4052;DHT22;2040;50.924;11.604;2023-02-28T12:59:41;3.80;99.90
4052;DHT22;2040;50.924;11.604;2023-02-28T13:08:35;4.30;99.90
4052;DHT22;2040;50.924;11.604;2023-02-28T13:11:03;4.10;99.90
4052;DHT22;2040;50.924;11.604;2023-02-28T13:13:30;4.00;99.90
4052;DHT22;2040;50.924;11.604;2023-02-28T13:16:06;4.20;99.90
4052;DHT22;2040;50.924;11.604;2023-02-28T13:18:44;4.30;99.90
4052;DHT22;2040;50.924;11.604;2023-02-28T13:21:32;4.40;99.90
4052;DHT22;2040;50.924;11.604;2023-02-28T13:24:08;4.30;99.90
4052;DHT22;2040;50.924;11.604;2023-02-28T13:29:27;4.50;99.90
4052;DHT22;2040;50.924;11.604;2023-02-28T13:34:40;4.10;99.90
4052;DHT22;2040;50.924;11.604;2023-02-28T13:39:53;4.00;99.90
4052;DHT22;2040;50.924;11.604;2023-02-28T13:42:32;4.40;99.90
4052;DHT22;2040;50.924;11.604;2023-02-28T13:47:43;4.40;99.90
4052;DHT22;2040;50.924;11.604;2023-02-28T13:55:42;4.70;99.90
4052;DHT22;2040;50.924;11.604;2023-02-28T13:58:24;4.70;99.90
4052;DHT22;2040;50.924;11.604;2023-02-28T14:01:08;4.40;99.90
4052;DHT22;2040;50.924;11.604;2023-02-28T14:06:37;4.30;99.90
4052;DHT22;2040;50.924;11.604;2023-02-28T14:09:24;4.00;99.90
4052;DHT22;2040;50.924;11.604;2023-02-28T14:11:51;4.10;99.90
4052;DHT22;2040;50.924;11.604;2023-02-28T14:17:05;4.70;99.90
4052;DHT22;2040;50.924;11.604;2023-02-28T14:19:32;4.20;99.90
4052;DHT22;2040;50.924;11.604;2023-02-28T14:24:59;4.20;99.90
4052;DHT22;2040;50.924;11.604;2023-02-28T14:27:48;4.30;99.90
4052;DHT22;2040;50.924;11.604;2023-02-28T14:30:40;4.10;99.90
4052;DHT22;2040;50.924;11.604;2023-02-28T14:38:57;4.20;99.90
4052;DHT22;2040;50.924;11.604;2023-02-28T14:41:40;4.20;99.90
4052;DHT22;2040;50.924;11.604;2023-02-28T14:44:26;4.10;99.90
4052;DHT22;2040;50.924;11.604;2023-02-28T14:46:54;3.90;99.90
4052;DHT22;2040;50.924;11.604;2023-02-28T14:49:30;3.70;99.90
4052;DHT22;2040;50.924;11.604;2023-02-28T14:54:45;3.90;99.90
4052;DHT22;2040;50.924;11.604;2023-02-28T15:02:36;4.10;99.90
4052;DHT22;2040;50.924;11.604;2023-02-28T15:07:46;3.90;99.90
4052;DHT22;2040;50.924;11.604;2023-02-28T15:10:20;3.50;99.90
4052;DHT22;2040;50.924;11.604;2023-02-28T15:13:00;3.50;99.90
4052;DHT22;2040;50.924;11.604;2023-02-28T15:18:03;3.70;99.90
4052;DHT22;2040;50.924;11.604;2023-02-28T15:20:32;3.60;99.90
4052;DHT22;2040;50.924;11.604;2023-02-28T15:22:59;3.80;99.90
4052;DHT22;2040;50.924;11.604;2023-02-28T15:25:26;3.70;99.90
4052;DHT22;2040;50.924;11.604;2023-02-28T15:27:55;3.60;99.90
4052;DHT22;2040;50.924;11.604;2023-02-28T15:30:25;3.70;99.90
4052;DHT22;2040;50.924;11.604;2023-02-28T15:33:25;3.80;99.90
4052;DHT22;2040;50.924;11.604;2023-02-28T15:36:06;3.80;99.90
4052;DHT22;2040;50.924;11.604;2023-02-28T15:38:36;4.10;99.90
4052;DHT22;2040;50.924;11.604;2023-02-28T15:41:02;3.80;99.90
4052;DHT22;2040;50.924;11.604;2023-02-28T15:43:35;3.50;99.90
4052;DHT22;2040;50.924;11.604;2023-02-28T15:46:10;3.30;99.90
4052;DHT22;2040;50.924;11.604;2023-02-28T15:48:51;3.10;99.90
4052;DHT22;2040;50.924;11.604;2023-02-28T15:51:18;3.00;99.90
4052;DHT22;2040;50.924;11.604;2023-02-28T15:53:51;3.00;99.90
4052;DHT22;2040;50.924;11.604;2023-02-28T15:56:24;2.60;99.90
4052;DHT22;2040;50.924;11.604;2023-02-28T15:58:57;2.40;99.90
4052;DHT22;2040;50.924;11.604;2023-02-28T16:01:44;2.50;99.90
4052;DHT22;2040;50.924;11.604;2023-02-28T16:04:18;2.30;99.90
4052;DHT22;2040;50.924;11.604;2023-02-28T16:06:45;2.20;99.90
4052;DHT22;2040;50.924;11.604;2023-02-28T16:09:17;2.10;99.90
4052;DHT22;2040;50.924;11.604;2023-02-28T16:11:48;2.00;99.90
4052;DHT22;2040;50.924;11.604;2023-02-28T16:14:24;2.00;99.90
4052;DHT22;2040;50.924;11.604;2023-02-28T16:16:52;2.00;99.90
4052;DHT22;2040;50.924;11.604;2023-02-28T16:19:18;1.90;99.90
4052;DHT22;2040;50.924;11.604;2023-02-28T16:21:45;1.70;99.90
4052;DHT22;2040;50.924;11.604;2023-02-28T16:24:10;1.60;99.90
4052;DHT22;2040;50.924;11.604;2023-02-28T16:26:36;1.50;99.90
4052;DHT22;2040;50.924;11.604;2023-02-28T16:29:05;1.50;99.90
4052;DHT22;2040;50.924;11.604;2023-02-28T16:31:35;1.40;99.90
4052;DHT22;2040;50.924;11.604;2023-02-28T16:34:02;1.40;99.90
4052;DHT22;2040;50.924;11.604;2023-02-28T16:36:29;1.40;99.90
4052;DHT22;2040;50.924;11.604;2023-02-28T16:38:54;1.40;99.90
4052;DHT22;2040;50.924;11.604;2023-02-28T16:41:22;1.40;99.90
4052;DHT22;2040;50.924;11.604;2023-02-28T16:43:52;1.40;99.90
4052;DHT22;2040;50.924;11.604;2023-02-28T16:46:19;1.20;99.90
4052;DHT22;2040;50.924;11.604;2023-02-28T16:48:46;1.30;99.90
4052;DHT22;2040;50.924;11.604;2023-02-28T16:51:15;1.10;99.90
4052;DHT22;2040;50.924;11.604;2023-02-28T16:53:41;1.10;99.90
4052;DHT22;2040;50.924;11.604;2023-02-28T16:56:17;1.20;99.90
4052;DHT22;2040;50.924;11.604;2023-02-28T16:58:43;1.10;99.90
4052;DHT22;2040;50.924;11.604;2023-02-28T17:01:09;0.90;99.90
4052;DHT22;2040;50.924;11.604;2023-02-28T17:03:34;0.80;99.90
4052;DHT22;2040;50.924;11.604;2023-02-28T17:06:02;0.70;99.90
4052;DHT22;2040;50.924;11.604;2023-02-28T17:08:28;0.70;99.90
4052;DHT22;2040;50.924;11.604;2023-02-28T17:10:55;0.60;99.90
4052;DHT22;2040;50.924;11.604;2023-02-28T17:13:20;0.40;99.90
4052;DHT22;2040;50.924;11.604;2023-02-28T17:15:46;0.30;99.90
4052;DHT22;2040;50.924;11.604;2023-02-28T17:18:15;0.30;99.90
4052;DHT22;2040;50.924;11.604;2023-02-28T17:20:44;0.10;99.90
4052;DHT22;2040;50.924;11.604;2023-02-28T17:23:10;0.00;99.90
4052;DHT22;2040;50.924;11.604;2023-02-28T17:25:36;0.00;99.90
4052;DHT22;2040;50.924;11.604;2023-02-28T17:28:02;0.00;99.90
4052;DHT22;2040;50.924;11.604;2023-02-28T17:30:28;-0.10;99.90
4052;DHT22;2040;50.924;11.604;2023-02-28T17:32:54;-0.10;99.90
4052;DHT22;2040;50.924;11.604;2023-02-28T17:35:21;-0.10;99.90
4052;DHT22;2040;50.924;11.604;2023-02-28T17:37:47;-0.10;99.90
4052;DHT22;2040;50.924;11.604;2023-02-28T17:40:18;-0.10;99.90
4052;DHT22;2040;50.924;11.604;2023-02-28T17:42:44;-0.20;99.90
4052;DHT22;2040;50.924;11.604;2023-02-28T17:45:11;-0.20;99.90
4052;DHT22;2040;50.924;11.604;2023-02-28T17:47:37;-0.30;99.90
4052;DHT22;2040;50.924;11.604;2023-02-28T17:50:02;-0.30;99.90
4052;DHT22;2040;50.924;11.604;2023-02-28T17:52:28;-0.20;99.90
4052;DHT22;2040;50.924;11.604;2023-02-28T17:54:54;-0.10;99.90
4052;DHT22;2040;50.924;11.604;2023-02-28T17:57:20;-0.30;99.90
4052;DHT22;2040;50.924;11.604;2023-02-28T17:59:45;-0.30;99.90
4052;DHT22;2040;50.924;11.604;2023-02-28T18:02:12;-0.30;99.90
4052;DHT22;2040;50.924;11.604;2023-02-28T18:04:38;-0.40;99.90
4052;DHT22;2040;50.924;11.604;2023-02-28T18:07:03;-0.20;99.90